Terminal Aerodrome Forecast
Issued by NWS Tallahassee, FL

Home | Current Version | Previous Version | Text Only | Print | Product List | Glossary On
Versions: 1 2 3 4 5 6 7 8 9 10 11 12 13 14
000
FTUS42 KTAE 101700
TAFTLH
TAF
KTLH 101720Z 1018/1118 18007KT 5SM -TSRA BKN030CB
      TEMPO 1018/1020 VRB20G30KT 2SM +TSRA BKN025CB
     FM102000 21006KT P6SM BKN100
     FM111500 21006KT P6SM VCTS SCT030CB=

USA.gov is the U.S. government's official web portal to all federal, state and local government web resources and services.